首页
METAR-TAF:

METAR-TAF

机场 :

Cotulla, 得克萨斯州, 美国

纬度: 28-27-30N, 经度: 099-13-13W, 海拔: 145米

当前天气观测

该预报发布于49分钟前的23:53 UTC
风速8节,风向,有时为17节阵风
温度 34°C
湿度 41%
气压 1013 hPa
能見度: 16.1公里
天空无云

METAR: KCOT 152353Z AUTO 18008G17KT 10SM CLR 34/19 A2992 RMK AO2 SLP124 T03390189 10367 20339 56010

时间: 19:42 (00:42 UTC)

预报

该预报发布于1小时和13分钟前的23:29 UTC
预报有效从16日的 00点(UTC)到 16日的 24点(UTC)
风速10节,风向南转南东,有时为18节阵风
能見度: 10公里
少量云层高于4000英尺
多云层高于25000英尺
从 16日的 0600点(UTC)
风速8节,风向东南
能見度: 10公里
少量云层高于7000英尺
散云层高于25000英尺
从 16日的 1800点(UTC)
风速10节,风向东南,有时为18节阵风
能見度: 10公里
散云层高于25000英尺

TAF: KCOT 152329Z 1600/1624 15010G18KT P6SM FEW040 BKN250 FM160600 14008KT P6SM FEW070 SCT250 FM161800 14010G18KT P6SM SCT250

超过4000个机场的气象观测和天气预报(METAR&TAF报告)。

可查询的气象台以黄色和红色小点在地图上表示。

将鼠标移到小点上方,可查看气象台名称。

然后点击查看天气观测和预报。

如需切换地图:点击带黑十字的绿色按钮放大地图;点击带横线的绿色按钮缩小地图;或者点击绿色箭头查看邻近地区的地图。


METAR-TAF: